Time;durP1;ratioP1;P1;durP2;ratioP2;P2;SDS_P1;SDS_P2;PMS_P1;PMS_P2;Temp;Humidity;BMP_temperature;BMP_pressure;BME280_temperature;BME280_humidity;BME280_pressure;Samples;Min_cycle;Max_cycle;Signal;HPM_P1;HPM_P2
2022/10/03 00:00:21;;;;;;;0.82;0.60;;;21.20;60.80;;;;;;5051224;28;20182;-51
2022/10/03 00:03:08;;;;;;;1.10;0.60;;;21.20;60.80;;;;;;5049853;28;20021;-48
2022/10/03 00:06:02;;;;;;;0.70;0.60;;;21.30;60.90;;;;;;5050510;28;20068;-52
2022/10/03 00:08:49;;;;;;;3.00;1.30;;;21.30;60.80;;;;;;5050321;28;20029;-52
2022/10/03 00:11:42;;;;;;;1.75;0.70;;;21.30;60.80;;;;;;5051748;28;20032;-49
2022/10/03 00:14:27;;;;;;;0.57;0.50;;;21.30;60.70;;;;;;5051424;28;20044;-52
2022/10/03 00:16:59;;;;;;;1.00;0.60;;;21.30;60.80;;;;;;5051228;28;20033;-50
2022/10/03 00:19:50;;;;;;;0.93;0.65;;;21.30;60.70;;;;;;5048359;28;20033;-53
2022/10/03 00:22:31;;;;;;;0.88;0.45;;;21.20;60.70;;;;;;5050867;28;20036;-51
2022/10/03 00:25:25;;;;;;;0.35;0.35;;;21.30;60.70;;;;;;5050114;28;20525;-52
2022/10/03 00:28:05;;;;;;;0.98;0.60;;;21.20;60.60;;;;;;5051203;28;20036;-52
2022/10/03 00:30:52;;;;;;;0.70;0.60;;;21.30;60.70;;;;;;5050303;28;20021;-52
2022/10/03 00:33:45;;;;;;;0.88;0.60;;;21.30;60.60;;;;;;5055603;28;20075;-50
2022/10/03 00:36:41;;;;;;;1.67;0.55;;;21.20;60.50;;;;;;5053753;28;20041;-48
2022/10/03 00:39:33;;;;;;;1.33;1.17;;;21.20;60.50;;;;;;5055062;28;20036;-52
2022/10/03 00:42:31;;;;;;;1.30;0.57;;;21.30;60.60;;;;;;5002413;28;20037;-51
2022/10/03 00:45:28;;;;;;;1.40;0.63;;;21.30;60.60;;;;;;5054110;28;20036;-49
2022/10/03 00:48:16;;;;;;;1.38;0.65;;;21.30;60.50;;;;;;5055053;28;20119;-50
2022/10/03 00:51:19;;;;;;;1.05;0.50;;;21.20;60.50;;;;;;5051455;28;20709;-50
2022/10/03 00:53:53;;;;;;;0.88;0.43;;;21.20;60.40;;;;;;5048035;28;20208;-51
2022/10/03 00:56:41;;;;;;;0.45;0.43;;;21.30;60.50;;;;;;5053921;28;20028;-47
2022/10/03 00:59:34;;;;;;;1.75;0.68;;;21.20;60.50;;;;;;5050835;28;20021;-51
2022/10/03 01:02:27;;;;;;;0.82;0.65;;;21.20;60.50;;;;;;5052711;28;20114;-51
2022/10/03 01:05:17;;;;;;;0.45;0.43;;;21.20;60.40;;;;;;5051373;28;20013;-52
2022/10/03 01:08:14;;;;;;;0.85;0.60;;;21.20;60.40;;;;;;5052618;28;20053;-49
2022/10/03 01:10:58;;;;;;;1.65;0.68;;;21.20;60.40;;;;;;5050186;28;20029;-50
2022/10/03 01:13:47;;;;;;;0.70;0.50;;;21.20;60.40;;;;;;5049673;28;20060;-49
2022/10/03 01:16:26;;;;;;;0.85;0.60;;;21.20;60.40;;;;;;5052597;28;20029;-51
2022/10/03 01:19:25;;;;;;;0.93;0.63;;;21.20;60.30;;;;;;5054214;28;20025;-51
2022/10/03 01:22:16;;;;;;;0.88;0.55;;;21.20;60.40;;;;;;5053746;28;20033;-52
2022/10/03 01:25:01;;;;;;;1.20;0.63;;;21.20;60.40;;;;;;5052465;28;20025;-52
2022/10/03 01:30:42;;;;;;;0.65;0.45;;;21.20;60.30;;;;;;5052757;28;20401;-52
2022/10/03 01:33:20;;;;;;;0.70;0.52;;;21.20;60.90;;;;;;5053799;28;20087;-51
2022/10/03 01:36:02;;;;;;;0.60;0.50;;;21.20;60.30;;;;;;5053483;28;20029;-50
2022/10/03 01:39:04;;;;;;;2.10;0.70;;;21.20;60.30;;;;;;5052782;28;20071;-52
2022/10/03 01:41:47;;;;;;;1.17;0.60;;;21.20;60.40;;;;;;5049665;28;20045;-52
2022/10/03 01:44:25;;;;;;;2.78;0.70;;;21.20;60.30;;;;;;5051381;28;20414;-52
2022/10/03 01:47:08;;;;;;;2.90;0.77;;;21.20;60.30;;;;;;5053929;28;20397;-51
2022/10/03 01:50:07;;;;;;;1.08;0.70;;;21.20;60.30;;;;;;5051473;28;20025;-50
2022/10/03 01:52:51;;;;;;;1.42;0.70;;;21.20;60.30;;;;;;5053141;28;20025;-52
2022/10/03 01:55:44;;;;;;;1.33;0.60;;;21.20;60.20;;;;;;5053556;28;20112;-53
2022/10/03 01:58:42;;;;;;;1.33;1.15;;;21.20;60.30;;;;;;5053480;28;20098;-51
2022/10/03 02:01:42;;;;;;;1.63;0.65;;;21.20;60.30;;;;;;5034084;28;20121;-52
2022/10/03 02:04:41;;;;;;;1.15;0.60;;;21.20;60.20;;;;;;5050471;28;20060;-49
2022/10/03 02:07:29;;;;;;;1.67;0.68;;;21.20;60.20;;;;;;5053650;28;20110;-52
2022/10/03 02:10:13;;;;;;;1.38;0.70;;;21.20;60.20;;;;;;5052997;28;20167;-51
2022/10/03 02:12:47;;;;;;;1.20;0.70;;;21.20;60.20;;;;;;5052565;28;20032;-51
2022/10/03 02:15:53;;;;;;;1.15;0.57;;;21.20;60.20;;;;;;5053093;28;20025;-52
2022/10/03 02:18:49;;;;;;;1.48;0.68;;;21.20;60.20;;;;;;5051783;28;20041;-52
2022/10/03 02:21:31;;;;;;;1.05;0.57;;;21.20;60.20;;;;;;5051722;28;20028;-52
2022/10/03 02:24:14;;;;;;;0.73;0.55;;;21.20;60.20;;;;;;5052969;28;20421;-52
2022/10/03 02:27:26;;;;;;;1.05;0.50;;;21.20;60.20;;;;;;5052480;28;20029;-48
2022/10/03 02:30:12;;;;;;;1.40;0.85;;;21.20;60.10;;;;;;5034615;28;20474;-50
2022/10/03 02:33:16;;;;;;;1.30;0.80;;;21.20;60.10;;;;;;5052514;28;20090;-52
2022/10/03 02:35:56;;;;;;;0.93;0.57;;;21.10;60.10;;;;;;5050693;28;20082;-53
2022/10/03 02:38:51;;;;;;;0.90;0.60;;;21.20;60.20;;;;;;5052560;28;20444;-51
2022/10/03 02:41:51;;;;;;;0.60;0.57;;;21.10;60.10;;;;;;5053106;28;20043;-52
2022/10/03 02:44:53;;;;;;;2.90;0.70;;;21.20;60.10;;;;;;5052223;28;20363;-50
2022/10/03 02:47:31;;;;;;;1.50;0.52;;;21.10;60.10;;;;;;5052895;28;20033;-51
2022/10/03 02:50:05;;;;;;;1.60;0.70;;;21.10;60.10;;;;;;5038747;28;20033;-52
2022/10/03 02:53:06;;;;;;;1.38;0.82;;;21.10;60.00;;;;;;5050091;28;20083;-52
2022/10/03 02:56:10;;;;;;;1.15;0.65;;;21.10;60.10;;;;;;5050976;28;20033;-52
2022/10/03 02:59:02;;;;;;;1.27;0.52;;;21.20;60.10;;;;;;5043324;28;20032;-52
2022/10/03 03:01:58;;;;;;;0.70;0.50;;;21.10;60.00;;;;;;5051438;28;20025;-52
2022/10/03 03:04:49;;;;;;;1.15;0.73;;;21.10;60.00;;;;;;5050164;28;20390;-50
2022/10/03 03:07:30;;;;;;;1.45;0.60;;;21.10;60.00;;;;;;5052580;28;20136;-52
2022/10/03 03:10:27;;;;;;;2.25;0.60;;;21.10;60.00;;;;;;5050532;28;20029;-52
2022/10/03 03:13:21;;;;;;;0.80;0.60;;;21.10;60.00;;;;;;5052485;28;20053;-53
2022/10/03 03:16:17;;;;;;;0.88;0.50;;;21.10;60.00;;;;;;5051618;28;20025;-50
2022/10/03 03:19:08;;;;;;;1.92;0.73;;;21.10;60.00;;;;;;5051206;28;20074;-52
2022/10/03 03:21:49;;;;;;;1.85;0.70;;;21.10;60.00;;;;;;5050888;28;20044;-52
2022/10/03 03:24:52;;;;;;;2.47;0.80;;;21.10;60.00;;;;;;5051551;28;20032;-51
2022/10/03 03:27:35;;;;;;;0.77;0.50;;;21.10;60.00;;;;;;5040007;28;20045;-53
2022/10/03 03:30:12;;;;;;;1.10;0.63;;;21.10;60.00;;;;;;5051511;28;20108;-52
2022/10/03 03:32:49;;;;;;;1.23;0.52;;;21.10;60.00;;;;;;5042661;28;20054;-51
2022/10/03 03:35:48;;;;;;;1.35;0.55;;;21.10;60.00;;;;;;5051385;28;20056;-52
2022/10/03 03:38:38;;;;;;;0.93;0.60;;;21.10;60.00;;;;;;4996940;28;20464;-52
2022/10/03 03:41:17;;;;;;;0.98;0.60;;;21.10;60.00;;;;;;5051904;28;20032;-52
2022/10/03 03:44:24;;;;;;;1.48;0.80;;;21.10;60.00;;;;;;5048897;28;20102;-52
2022/10/03 03:47:14;;;;;;;1.63;0.60;;;21.10;59.90;;;;;;5038610;28;20044;-52
2022/10/03 03:49:48;;;;;;;1.50;0.65;;;21.10;59.90;;;;;;5049929;28;20127;-53
2022/10/03 03:52:44;;;;;;;0.95;0.68;;;21.10;59.90;;;;;;5051559;28;20070;-53
2022/10/03 03:55:39;;;;;;;4.20;0.80;;;21.10;59.90;;;;;;5050809;28;20377;-51
2022/10/03 03:58:14;;;;;;;2.78;0.70;;;21.10;60.00;;;;;;5050162;28;20060;-52
2022/10/03 04:00:51;;;;;;;0.65;0.52;;;21.10;59.90;;;;;;5050288;28;20029;-53
2022/10/03 04:03:38;;;;;;;1.35;0.60;;;21.10;60.00;;;;;;5051871;28;20023;-51
2022/10/03 04:06:35;;;;;;;0.68;0.50;;;21.10;59.90;;;;;;5050769;28;20029;-53
2022/10/03 04:09:26;;;;;;;0.75;0.63;;;21.10;59.90;;;;;;5051359;28;20029;-52
2022/10/03 04:12:12;;;;;;;1.33;0.68;;;21.10;59.90;;;;;;5051379;28;20048;-51
2022/10/03 04:15:25;;;;;;;1.13;0.60;;;21.10;59.80;;;;;;5050337;28;20079;-53
2022/10/03 04:18:57;;;;;;;0.77;0.52;;;21.10;59.80;;;;;;4950214;28;20424;-51
2022/10/03 04:21:43;;;;;;;0.60;0.60;;;21.10;59.80;;;;;;4987593;28;20398;-47
2022/10/03 04:24:37;;;;;;;2.25;0.70;;;21.10;59.80;;;;;;5051363;28;20029;-51
2022/10/03 04:27:41;;;;;;;1.00;0.60;;;21.10;59.80;;;;;;5051464;28;20036;-51
2022/10/03 04:30:16;;;;;;;0.90;0.60;;;21.10;59.80;;;;;;5050812;28;20029;-50
2022/10/03 04:33:04;;;;;;;0.50;0.50;;;21.10;59.80;;;;;;5050744;28;20028;-53
2022/10/03 04:36:04;;;;;;;0.55;0.55;;;21.10;59.80;;;;;;5048594;28;20051;-52
2022/10/03 04:38:56;;;;;;;1.77;0.80;;;21.10;59.70;;;;;;5050194;28;20035;-49
2022/10/03 04:41:48;;;;;;;0.90;0.60;;;21.10;59.70;;;;;;5050975;28;20420;-48
2022/10/03 04:44:48;;;;;;;1.77;0.50;;;21.10;59.70;;;;;;5050188;28;20052;-50
2022/10/03 04:47:26;;;;;;;1.08;0.80;;;21.10;59.70;;;;;;5050997;28;20268;-52
2022/10/03 04:50:18;;;;;;;1.67;0.60;;;21.10;59.70;;;;;;5049639;28;20452;-51
2022/10/03 04:53:10;;;;;;;1.30;0.60;;;21.10;59.70;;;;;;5013644;28;20056;-49
2022/10/03 04:55:55;;;;;;;1.10;0.60;;;21.10;59.70;;;;;;5049078;28;20122;-48
2022/10/03 04:58:46;;;;;;;1.50;0.68;;;21.10;59.70;;;;;;5051084;28;20096;-51
2022/10/03 05:01:32;;;;;;;2.28;0.63;;;21.10;59.70;;;;;;5050362;28;20032;-48
2022/10/03 05:04:28;;;;;;;1.40;0.63;;;21.10;59.70;;;;;;5050800;28;20028;-52
2022/10/03 05:07:03;;;;;;;0.98;0.50;;;21.10;59.70;;;;;;4961967;28;20047;-52
2022/10/03 05:09:56;;;;;;;1.10;0.50;;;21.10;59.70;;;;;;5049280;28;20040;-52
2022/10/03 05:12:49;;;;;;;1.27;0.80;;;21.10;59.70;;;;;;5050636;28;20100;-49
2022/10/03 05:15:22;;;;;;;2.03;0.70;;;21.10;59.70;;;;;;5050621;28;20036;-49
2022/10/03 05:18:16;;;;;;;1.30;0.80;;;21.10;59.70;;;;;;5051903;28;20025;-52
2022/10/03 05:21:04;;;;;;;1.13;0.73;;;21.10;59.60;;;;;;5053311;28;20063;-52
2022/10/03 05:24:01;;;;;;;1.27;0.70;;;21.10;59.60;;;;;;5051857;28;20036;-50
2022/10/03 05:26:47;;;;;;;0.77;0.70;;;21.10;59.60;;;;;;5052911;28;20037;-48
2022/10/03 05:29:36;;;;;;;0.88;0.75;;;21.10;59.60;;;;;;5044405;28;20033;-52
2022/10/03 05:32:17;;;;;;;2.15;0.85;;;21.10;59.60;;;;;;5053625;28;20063;-51
2022/10/03 05:35:24;;;;;;;1.95;0.82;;;21.10;59.60;;;;;;5053191;28;20155;-49
2022/10/03 05:37:55;;;;;;;0.88;0.80;;;21.10;59.60;;;;;;5052744;28;20045;-48
2022/10/03 05:40:26;;;;;;;1.52;0.70;;;21.10;59.60;;;;;;5053514;28;20074;-47
2022/10/03 05:43:08;;;;;;;0.63;0.60;;;21.10;59.60;;;;;;5053173;28;20029;-53
2022/10/03 05:45:45;;;;;;;2.40;0.70;;;21.10;59.50;;;;;;5049326;28;20094;-49
2022/10/03 05:48:45;;;;;;;1.15;0.90;;;21.10;59.60;;;;;;5053384;28;20263;-50
2022/10/03 05:51:38;;;;;;;3.55;0.98;;;21.10;59.50;;;;;;5051314;28;20025;-48
2022/10/03 05:54:29;;;;;;;0.60;0.50;;;21.10;59.50;;;;;;5014121;28;20561;-53
2022/10/03 05:57:30;;;;;;;1.33;0.70;;;21.10;59.50;;;;;;5051218;28;20391;-49
2022/10/03 06:00:09;;;;;;;1.55;0.70;;;21.10;59.50;;;;;;5050863;28;20025;-47
2022/10/03 06:02:53;;;;;;;0.90;0.68;;;21.10;59.50;;;;;;5050129;28;20051;-48
2022/10/03 06:05:40;;;;;;;0.63;0.60;;;21.10;59.50;;;;;;5050068;28;20036;-52
2022/10/03 06:08:11;;;;;;;0.60;0.50;;;21.10;59.50;;;;;;5052056;28;20563;-52
2022/10/03 06:11:10;;;;;;;1.55;1.08;;;21.10;59.50;;;;;;5048042;28;20397;-49
2022/10/03 06:14:04;;;;;;;2.90;0.98;;;21.10;59.50;;;;;;5051780;28;20029;-54
2022/10/03 06:16:43;;;;;;;2.40;0.85;;;21.10;59.50;;;;;;5044854;28;20444;-51
2022/10/03 06:19:46;;;;;;;1.23;0.93;;;21.10;59.50;;;;;;5034527;28;20027;-50
2022/10/03 06:22:49;;;;;;;1.20;0.77;;;21.10;59.40;;;;;;5051917;28;20021;-49
2022/10/03 06:25:48;;;;;;;1.10;0.70;;;21.10;59.40;;;;;;5050496;28;20094;-51
2022/10/03 06:28:32;;;;;;;0.88;0.73;;;21.10;59.40;;;;;;5049248;28;20079;-50
2022/10/03 06:31:33;;;;;;;1.63;0.93;;;21.00;59.30;;;;;;5051511;28;20029;-49
2022/10/03 06:34:20;;;;;;;1.85;0.90;;;21.10;59.40;;;;;;5006206;28;20118;-50
2022/10/03 06:37:03;;;;;;;1.40;0.68;;;21.00;59.30;;;;;;5050321;28;20115;-52
2022/10/03 06:39:29;;;;;;;1.27;1.00;;;21.00;59.40;;;;;;5051863;28;20032;-48
2022/10/03 06:42:03;;;;;;;3.00;0.90;;;21.00;59.40;;;;;;5053081;28;20033;-48
2022/10/03 06:44:56;;;;;;;0.90;0.82;;;21.00;59.30;;;;;;5049087;28;20044;-47
2022/10/03 06:47:46;;;;;;;0.77;0.77;;;21.00;59.30;;;;;;5051430;28;20041;-50
2022/10/03 06:50:52;;;;;;;3.30;1.08;;;21.00;59.30;;;;;;5049591;28;20025;-46
2022/10/03 06:53:33;;;;;;;1.33;0.80;;;21.10;59.30;;;;;;4988067;28;20043;-46
2022/10/03 06:56:42;;;;;;;1.25;1.02;;;21.00;59.30;;;;;;5053384;28;20025;-46
2022/10/03 06:59:26;;;;;;;1.38;1.17;;;21.00;59.30;;;;;;4995877;28;20508;-48
2022/10/03 07:02:00;;;;;;;2.20;0.80;;;21.00;59.20;;;;;;5052677;28;20048;-47
2022/10/03 07:04:32;;;;;;;3.55;1.10;;;21.00;59.20;;;;;;5051257;28;20099;-47
2022/10/03 07:07:20;;;;;;;1.20;0.90;;;21.00;59.20;;;;;;5052600;28;20040;-49
2022/10/03 07:09:59;;;;;;;1.63;1.05;;;21.10;59.30;;;;;;5051836;28;20037;-49
2022/10/03 07:12:56;;;;;;;2.25;1.20;;;21.10;59.30;;;;;;5051526;28;20470;-47
2022/10/03 07:15:59;;;;;;;2.33;1.20;;;21.10;59.40;;;;;;5046046;28;20123;-49
2022/10/03 07:19:02;;;;;;;3.03;2.08;;;21.10;59.40;;;;;;5050629;28;20035;-50
2022/10/03 07:21:40;;;;;;;9.23;3.72;;;21.10;59.20;;;;;;5051161;28;20032;-47
2022/10/03 07:24:47;;;;;;;7.93;3.53;;;21.00;56.40;;;;;;5041142;28;20569;-48
2022/10/03 07:27:29;;;;;;;7.10;3.92;;;20.90;56.80;;;;;;5005818;28;20440;-51
2022/10/03 07:30:08;;;;;;;9.52;4.15;;;20.90;56.20;;;;;;5049085;28;20029;-51
2022/10/03 07:32:56;;;;;;;6.05;4.22;;;20.80;56.40;;;;;;5043676;28;20044;-47
2022/10/03 07:39:03;;;;;;;7.03;3.95;;;20.90;56.20;;;;;;5048391;28;20051;-50
2022/10/03 07:41:53;;;;;;;5.85;4.10;;;20.90;56.10;;;;;;5046407;28;20039;-49
2022/10/03 07:44:30;;;;;;;7.18;4.10;;;20.90;55.90;;;;;;5047557;28;20052;-48
2022/10/03 07:47:31;;;;;;;14.23;3.75;;;20.90;55.60;;;;;;5049800;28;20039;-49
2022/10/03 07:50:23;;;;;;;8.18;2.88;;;21.00;56.30;;;;;;5044033;28;20048;-52
2022/10/03 07:53:16;;;;;;;8.55;3.88;;;21.20;56.30;;;;;;5049405;28;20036;-48
2022/10/03 07:56:06;;;;;;;7.85;2.78;;;21.30;56.70;;;;;;5046874;28;20024;-48
2022/10/03 07:58:46;;;;;;;7.25;2.65;;;21.20;56.70;;;;;;5049055;28;20017;-49
2022/10/03 08:01:12;;;;;;;6.28;2.50;;;21.20;56.80;;;;;;5049234;28;20064;-48
2022/10/03 08:04:19;;;;;;;3.88;2.00;;;21.20;57.00;;;;;;5050254;28;20048;-48
2022/10/03 08:07:17;;;;;;;9.00;1.75;;;21.20;57.20;;;;;;5048375;28;20033;-48
2022/10/03 08:10:04;;;;;;;9.20;2.15;;;21.20;57.50;;;;;;5005637;28;20041;-49
2022/10/03 08:12:54;;;;;;;3.55;1.92;;;21.20;57.70;;;;;;5051314;28;20485;-50
2022/10/03 08:15:29;;;;;;;4.78;1.77;;;21.20;57.90;;;;;;5051615;28;20029;-50
2022/10/03 08:18:14;;;;;;;4.13;2.08;;;21.20;58.10;;;;;;5052311;28;20028;-48
2022/10/03 08:20:51;;;;;;;2.97;1.80;;;21.20;58.20;;;;;;5050533;28;20032;-48
2022/10/03 08:23:35;;;;;;;4.05;1.77;;;21.20;58.30;;;;;;5050261;28;20162;-48
2022/10/03 08:26:12;;;;;;;4.32;2.15;;;21.20;58.40;;;;;;5051683;28;20029;-49
2022/10/03 08:29:07;;;;;;;3.47;1.50;;;21.20;58.60;;;;;;5049473;28;20064;-47
2022/10/03 08:32:12;;;;;;;6.03;2.30;;;21.20;58.60;;;;;;5051292;28;20031;-48
2022/10/03 08:35:09;;;;;;;3.65;2.00;;;21.20;58.70;;;;;;5041040;28;20024;-47
2022/10/03 08:37:51;;;;;;;5.07;1.83;;;21.20;58.80;;;;;;5048829;28;20029;-50
2022/10/03 08:40:36;;;;;;;1.80;1.50;;;21.20;59.00;;;;;;5051004;28;20534;-49
2022/10/03 08:43:39;;;;;;;2.05;1.40;;;21.20;58.90;;;;;;5000934;28;20503;-47
2022/10/03 08:46:29;;;;;;;2.13;1.45;;;21.20;59.00;;;;;;5051268;28;20478;-47
2022/10/03 08:49:22;;;;;;;3.47;1.60;;;21.20;59.00;;;;;;5051378;28;20033;-49
2022/10/03 08:52:20;;;;;;;3.33;1.80;;;21.20;59.00;;;;;;5049850;28;20032;-47
2022/10/03 08:55:23;;;;;;;2.45;1.63;;;21.20;59.10;;;;;;5043664;28;20028;-48
2022/10/03 08:57:57;;;;;;;2.97;1.80;;;21.20;59.20;;;;;;5053792;28;20040;-47
2022/10/03 09:00:33;;;;;;;2.63;1.65;;;21.20;59.40;;;;;;5054174;28;20028;-50
2022/10/03 09:03:11;;;;;;;5.32;2.00;;;21.20;59.30;;;;;;5055499;28;20052;-48
2022/10/03 09:05:57;;;;;;;2.35;1.58;;;21.20;59.30;;;;;;5051482;28;20032;-51
2022/10/03 09:09:00;;;;;;;3.72;1.63;;;21.30;59.40;;;;;;5042365;28;20478;-48
2022/10/03 09:11:46;;;;;;;2.40;1.42;;;21.30;59.50;;;;;;5052222;28;20029;-47
2022/10/03 09:14:30;;;;;;;3.65;1.73;;;21.30;59.40;;;;;;5054439;28;20048;-48
2022/10/03 09:17:05;;;;;;;1.88;1.15;;;21.20;59.40;;;;;;5055029;28;20421;-46
2022/10/03 09:19:52;;;;;;;4.00;2.35;;;21.30;59.40;;;;;;5053975;28;20068;-48
2022/10/03 09:22:50;;;;;;;3.25;1.42;;;21.30;59.40;;;;;;5054924;28;20086;-46
2022/10/03 09:25:54;;;;;;;1.83;1.70;;;21.30;59.30;;;;;;5054394;28;20040;-47
2022/10/03 09:28:29;;;;;;;3.05;1.40;;;21.20;59.30;;;;;;5052914;28;20029;-47
2022/10/03 09:31:06;;;;;;;4.32;1.63;;;21.30;59.30;;;;;;5054442;28;20082;-49
2022/10/03 09:33:56;;;;;;;2.05;1.50;;;21.30;59.30;;;;;;5053627;28;20032;-46
2022/10/03 09:36:33;;;;;;;3.10;1.60;;;21.30;59.20;;;;;;5054256;28;20021;-51
2022/10/03 09:39:10;;;;;;;1.58;1.35;;;21.20;59.20;;;;;;5054086;28;20470;-51
2022/10/03 09:42:03;;;;;;;1.95;1.60;;;21.30;59.20;;;;;;5052456;28;20032;-50
2022/10/03 09:45:25;;;;;;;2.55;1.55;;;21.30;59.20;;;;;;5053398;28;20140;-47
2022/10/03 09:48:19;;;;;;;2.85;1.48;;;21.30;59.10;;;;;;4955045;29;20118;-47
2022/10/03 09:51:20;;;;;;;2.10;1.30;;;21.30;59.10;;;;;;4953036;29;20038;-51
2022/10/03 09:53:45;;;;;;;3.08;1.52;;;21.30;59.10;;;;;;4934734;28;20306;-50
2022/10/03 09:56:43;;;;;;;6.70;1.85;;;21.30;59.20;;;;;;4947927;29;20488;-51
2022/10/03 09:59:51;;;;;;;5.47;1.55;;;21.40;59.30;;;;;;4947871;28;20038;-53
2022/10/03 10:02:43;;;;;;;2.92;1.58;;;21.40;59.30;;;;;;4951761;28;20059;-51
2022/10/03 10:05:35;;;;;;;7.72;1.55;;;21.40;59.30;;;;;;4946503;28;20043;-53
2022/10/03 10:08:04;;;;;;;1.88;1.20;;;21.60;59.30;;;;;;4951552;29;20602;-50
2022/10/03 10:10:51;;;;;;;5.10;1.33;;;21.60;59.40;;;;;;4950032;28;20046;-55
2022/10/03 10:13:34;;;;;;;3.85;1.83;;;21.70;59.20;;;;;;4952423;29;20035;-53
2022/10/03 10:16:34;;;;;;;2.67;1.50;;;21.80;58.90;;;;;;4946806;28;20175;-54
2022/10/03 10:19:09;;;;;;;5.05;1.48;;;21.90;58.70;;;;;;5024103;28;20041;-53
2022/10/03 10:22:15;;;;;;;8.88;1.70;;;22.00;58.40;;;;;;5050687;28;20016;-51
2022/10/03 10:25:19;;;;;;;6.45;1.90;;;22.10;58.10;;;;;;5046766;28;20423;-51
2022/10/03 10:27:56;;;;;;;12.30;4.90;;;22.20;57.70;;;;;;5066530;28;20037;-53
2022/10/03 10:30:25;;;;;;;7.20;4.30;;;22.20;57.50;;;;;;5033541;28;20432;-51
2022/10/03 10:33:12;;;;;;;11.00;5.18;;;22.30;57.20;;;;;;5051554;28;20064;-50
2022/10/03 10:36:08;;;;;;;9.68;6.55;;;22.30;57.30;;;;;;5048355;28;20486;-52
2022/10/03 10:39:02;;;;;;;13.27;8.90;;;22.40;57.30;;;;;;5049506;28;20496;-50
2022/10/03 10:41:48;;;;;;;15.90;10.63;;;22.50;57.30;;;;;;5042775;28;20041;-50
2022/10/03 10:44:37;;;;;;;15.93;10.65;;;22.60;57.80;;;;;;5052463;28;20045;-49
2022/10/03 10:47:26;;;;;;;15.35;10.68;;;22.50;57.50;;;;;;5053147;28;20029;-52
2022/10/03 10:50:10;;;;;;;14.90;9.90;;;22.60;57.70;;;;;;5051378;28;20033;-52
2022/10/03 10:53:04;;;;;;;15.65;10.07;;;22.50;57.90;;;;;;5044690;28;20025;-49
2022/10/03 10:55:43;;;;;;;15.18;9.32;;;22.50;58.10;;;;;;5052043;28;20159;-47
2022/10/03 10:58:26;;;;;;;16.15;10.13;;;22.40;58.20;;;;;;5052634;28;20534;-48
2022/10/03 11:01:27;;;;;;;16.45;10.45;;;22.40;58.30;;;;;;5052521;28;20500;-47
2022/10/03 11:04:16;;;;;;;15.10;8.88;;;22.30;58.60;;;;;;5049777;28;20115;-48
2022/10/03 11:07:03;;;;;;;14.10;9.55;;;22.30;58.70;;;;;;5051011;28;20071;-46
2022/10/03 11:09:59;;;;;;;16.13;9.23;;;22.30;58.70;;;;;;5046009;28;20040;-49
2022/10/03 11:13:09;;;;;;;14.80;8.23;;;22.30;58.70;;;;;;5051099;28;20040;-48
2022/10/03 11:15:54;;;;;;;15.55;6.72;;;22.30;58.80;;;;;;5038478;28;20056;-51
2022/10/03 11:18:38;;;;;;;7.78;4.30;;;22.30;58.20;;;;;;5052384;28;20063;-47
2022/10/03 11:21:29;;;;;;;8.07;2.55;;;22.10;52.20;;;;;;5050570;28;20021;-50
2022/10/03 11:24:19;;;;;;;7.40;3.15;;;21.60;50.20;;;;;;5049205;28;20436;-49
2022/10/03 11:27:26;;;;;;;8.02;3.10;;;21.40;52.30;;;;;;5051656;28;20043;-51
2022/10/03 11:29:52;;;;;;;9.52;3.00;;;21.20;52.30;;;;;;5051857;28;20039;-47
2022/10/03 11:32:53;;;;;;;13.07;3.30;;;21.10;52.60;;;;;;5052265;28;20028;-48
2022/10/03 11:35:40;;;;;;;9.00;2.80;;;20.90;52.70;;;;;;5048186;28;20032;-57
2022/10/03 11:38:08;;;;;;;7.60;2.72;;;21.00;53.70;;;;;;5048036;28;20028;-46
2022/10/03 11:41:14;;;;;;;6.25;2.78;;;21.30;54.30;;;;;;5045652;28;20099;-49
2022/10/03 11:44:05;;;;;;;8.35;2.70;;;21.40;54.30;;;;;;5043681;28;20449;-52
2022/10/03 11:47:09;;;;;;;10.95;3.53;;;21.50;54.70;;;;;;5039168;28;20025;-51
2022/10/03 11:49:54;;;;;;;9.23;2.60;;;21.60;54.90;;;;;;5049903;28;20044;-48
2022/10/03 11:52:26;;;;;;;6.88;2.63;;;21.60;54.90;;;;;;5046316;28;20029;-51
2022/10/03 11:55:19;;;;;;;7.53;2.80;;;21.60;55.10;;;;;;5041721;28;20033;-51
2022/10/03 11:58:10;;;;;;;7.43;2.38;;;21.60;55.10;;;;;;5051038;28;20025;-51
2022/10/03 12:00:39;;;;;;;7.32;2.88;;;21.60;55.20;;;;;;5049318;28;20029;-50
2022/10/03 12:03:13;;;;;;;7.68;3.28;;;21.60;55.30;;;;;;5050329;28;20198;-48
2022/10/03 12:09:13;;;;;;;7.15;2.80;;;21.60;55.30;;;;;;5025729;28;20040;-48
2022/10/03 12:11:50;;;;;;;6.97;2.33;;;21.60;55.30;;;;;;5049799;28;20033;-47
2022/10/03 12:14:26;;;;;;;4.75;2.20;;;21.60;55.40;;;;;;5051259;28;20537;-48
2022/10/03 12:16:58;;;;;;;5.55;2.50;;;21.60;55.40;;;;;;5052082;28;20033;-47
2022/10/03 12:19:52;;;;;;;6.97;2.47;;;21.60;55.40;;;;;;5051072;28;20104;-47
2022/10/03 12:22:52;;;;;;;6.03;2.00;;;21.60;55.20;;;;;;5050683;28;20021;-47
2022/10/03 12:25:29;;;;;;;7.38;2.70;;;21.60;55.40;;;;;;5050738;28;20033;-47
2022/10/03 12:28:38;;;;;;;8.90;3.13;;;21.60;55.20;;;;;;5053774;28;20040;-48
2022/10/03 12:31:23;;;;;;;8.23;2.35;;;21.60;55.20;;;;;;4954080;29;20030;-50
2022/10/03 12:34:01;;;;;;;5.15;2.20;;;21.70;55.20;;;;;;5045361;28;20486;-50
2022/10/03 12:36:49;;;;;;;4.70;1.95;;;21.70;55.00;;;;;;5054566;28;20077;-49
2022/10/03 12:39:52;;;;;;;4.53;2.53;;;21.80;54.90;;;;;;5039763;28;20041;-49
2022/10/03 12:42:40;;;;;;;4.50;2.10;;;21.80;54.70;;;;;;5046951;28;20426;-53
2022/10/03 12:45:30;;;;;;;5.00;1.88;;;21.90;54.50;;;;;;5046100;28;20414;-50
2022/10/03 12:48:18;;;;;;;5.88;1.90;;;21.90;54.30;;;;;;5053907;28;20044;-47
2022/10/03 12:51:03;;;;;;;5.10;2.58;;;22.00;54.30;;;;;;5052819;28;20025;-46
2022/10/03 12:53:47;;;;;;;4.28;2.00;;;21.90;54.10;;;;;;5047947;28;20078;-49
2022/10/03 12:56:20;;;;;;;5.57;2.67;;;21.90;54.20;;;;;;5042530;28;20079;-47
2022/10/03 12:59:15;;;;;;;5.00;1.77;;;21.90;53.80;;;;;;5053048;28;20438;-47
2022/10/03 13:02:11;;;;;;;5.15;2.17;;;21.80;54.10;;;;;;5003191;28;20055;-49
2022/10/03 13:05:01;;;;;;;5.13;1.90;;;21.80;54.20;;;;;;5054069;28;20104;-48
2022/10/03 13:07:42;;;;;;;5.47;1.92;;;21.80;54.10;;;;;;5042430;28;20032;-51
2022/10/03 13:10:10;;;;;;;4.88;2.03;;;21.80;54.20;;;;;;5054421;28;20025;-50
2022/10/03 13:13:02;;;;;;;5.60;3.08;;;21.80;54.20;;;;;;5053418;28;20470;-48
2022/10/03 13:16:12;;;;;;;5.00;2.08;;;21.80;54.20;;;;;;5052333;28;20040;-48
2022/10/03 13:18:38;;;;;;;8.52;3.03;;;21.70;54.10;;;;;;5048973;28;20041;-47
2022/10/03 13:21:29;;;;;;;3.92;1.70;;;21.80;54.20;;;;;;5054638;28;20029;-48
2022/10/03 13:24:06;;;;;;;3.60;1.77;;;21.70;54.20;;;;;;5054542;28;20417;-48
2022/10/03 13:27:03;;;;;;;4.63;1.90;;;21.70;54.20;;;;;;5053930;28;20037;-47
2022/10/03 13:29:44;;;;;;;6.53;2.55;;;21.70;54.20;;;;;;5053799;28;20068;-47
2022/10/03 13:32:15;;;;;;;5.35;1.80;;;21.70;54.10;;;;;;5051428;28;20013;-49
2022/10/03 13:38:45;;;;;;;4.43;2.25;;;21.60;54.00;;;;;;4954753;28;20050;-48
2022/10/03 13:41:18;;;;;;;4.35;1.80;;;21.60;54.10;;;;;;5054284;28;20029;-52
2022/10/03 13:43:55;;;;;;;5.47;2.30;;;21.60;54.00;;;;;;5050756;28;20064;-50
2022/10/03 13:46:29;;;;;;;3.67;1.77;;;21.70;54.00;;;;;;5049727;28;20036;-46
2022/10/03 13:48:59;;;;;;;3.58;1.65;;;21.70;54.10;;;;;;5052096;28;20028;-49
2022/10/03 13:51:38;;;;;;;7.30;2.25;;;21.70;54.10;;;;;;5054080;28;20025;-47
2022/10/03 13:54:20;;;;;;;4.20;1.67;;;21.60;54.00;;;;;;5053399;28;20029;-49
2022/10/03 13:57:04;;;;;;;2.45;1.80;;;21.70;54.00;;;;;;5053551;28;20082;-51
2022/10/03 13:59:51;;;;;;;7.50;2.42;;;21.60;53.90;;;;;;5041130;28;20044;-48
2022/10/03 14:02:40;;;;;;;2.50;1.50;;;21.70;54.00;;;;;;5052981;28;20029;-51
2022/10/03 14:05:18;;;;;;;3.10;1.65;;;21.70;53.80;;;;;;5046136;28;20029;-52
2022/10/03 14:08:12;;;;;;;4.18;1.50;;;21.70;53.80;;;;;;5043270;28;20501;-50
2022/10/03 14:11:09;;;;;;;5.80;2.33;;;21.60;54.00;;;;;;5052630;28;20474;-50
2022/10/03 14:13:51;;;;;;;5.68;1.90;;;21.60;53.90;;;;;;5052103;28;20029;-52
2022/10/03 14:16:31;;;;;;;3.80;1.48;;;21.60;53.90;;;;;;5053955;28;20051;-51
2022/10/03 14:19:31;;;;;;;3.30;1.38;;;21.70;54.00;;;;;;5053493;28;20037;-48
2022/10/03 14:21:56;;;;;;;5.70;1.92;;;21.70;54.80;;;;;;5052182;28;20013;-48
2022/10/03 14:24:41;;;;;;;4.60;1.70;;;21.70;55.10;;;;;;5051889;28;20040;-47
2022/10/03 14:27:44;;;;;;;3.22;1.40;;;21.70;55.20;;;;;;5051353;28;20116;-49
2022/10/03 14:30:15;;;;;;;6.25;1.48;;;21.70;55.30;;;;;;5051540;28;20068;-49
2022/10/03 14:33:17;;;;;;;3.00;1.65;;;21.80;55.10;;;;;;5051615;28;20474;-48
2022/10/03 14:36:07;;;;;;;2.77;1.30;;;21.80;55.20;;;;;;5045779;28;20040;-50
2022/10/03 14:39:02;;;;;;;3.63;1.55;;;21.80;55.30;;;;;;5050697;28;20029;-50
2022/10/03 14:41:44;;;;;;;3.88;1.80;;;21.80;55.30;;;;;;5021983;28;20381;-49
2022/10/03 14:44:21;;;;;;;3.72;1.65;;;21.80;55.30;;;;;;5052121;28;20429;-51
2022/10/03 14:46:56;;;;;;;2.38;1.42;;;21.80;55.20;;;;;;5053134;28;20086;-49